Terminal Aerodrome Forecast
Issued by NWS

Home | Current Version | Previous Version | Text Only | Print | Product List | Glossary On
Versions: 1 2 3 4 5 6 7 8 9 10 11 12 13 14 15 16 17 18 19 20 21 22 23
273
FTUS46 KSEW 130533
TAFSEA
TAF
KSEA 130533Z 1306/1412 20010KT P6SM SCT030 BKN060
     FM130900 18008KT P6SM SCT025 BKN045
      TEMPO 1309/1313 -SHRA BKN025 OVC045
     FM132000 15008KT P6SM -RA OVC040
      TEMPO 1322/1402 4SM -RA
     FM140200 17013G20KT 4SM -RA SCT010 OVC020=

USA.gov is the U.S. government's official web portal to all federal, state and local government web resources and services.